Google Maps JavaScript API Example
Pilot Flight Report # 94924 Submitted by : AST775 on 2021-02-28
Date: 2021-02-28Aircraft: Howard 500
Flight No.: AST2105Distance (Nm): 346.47
Departure: YMML - Melbourne InternationalDestination: YPAD - Adelaide International
 TimeFuelWeightSpeeds  
Out (Taxi)2007Z1116 lbs26097 lbs Flight RulesVFR
Off (Takeoff)2007Z 26089 lbs107 ktsFlight Level15000
On (Landing)2122Z 25945 lbs95 ktsVSTD-244 ft/min
In (Ramp)2122Z966 lbs25945 lbs ZFW24982 lbs
Flight1.30  -  1:15144 lbs  Pax0
Block1.25  -  1:15150 lbs  Cargo0
Departure Weather272034Z 18010KT 51SM FEW134 21/8 A299
Destination WeatherYPAD 272122Z 22111KT 50SM SKC 22/13 A2988
Flight CommentsVFR Leg 1 - YMML - YPAD